sensor_id;sensor_type;location;lat;lon;timestamp;P1;durP1;ratioP1;P2;durP2;ratioP2
21825;SDS011;11075;47.944;11.776;2023-02-03T00:01:03;7.17;;;2.57;;
21825;SDS011;11075;47.944;11.776;2023-02-03T00:03:30;8.27;;;2.93;;
21825;SDS011;11075;47.944;11.776;2023-02-03T00:05:57;5.90;;;2.17;;
21825;SDS011;11075;47.944;11.776;2023-02-03T00:08:25;3.33;;;2.10;;
21825;SDS011;11075;47.944;11.776;2023-02-03T00:10:52;5.70;;;2.60;;
21825;SDS011;11075;47.944;11.776;2023-02-03T00:13:20;5.47;;;2.50;;
21825;SDS011;11075;47.944;11.776;2023-02-03T00:15:47;8.90;;;2.43;;
21825;SDS011;11075;47.944;11.776;2023-02-03T00:18:14;7.60;;;2.27;;
21825;SDS011;11075;47.944;11.776;2023-02-03T00:20:41;4.13;;;2.20;;
21825;SDS011;11075;47.944;11.776;2023-02-03T00:23:09;3.27;;;2.47;;
21825;SDS011;11075;47.944;11.776;2023-02-03T00:25:37;6.57;;;2.03;;
21825;SDS011;11075;47.944;11.776;2023-02-03T00:28:05;4.20;;;2.00;;
21825;SDS011;11075;47.944;11.776;2023-02-03T00:30:33;5.90;;;2.93;;
21825;SDS011;11075;47.944;11.776;2023-02-03T00:33:02;5.17;;;2.03;;
21825;SDS011;11075;47.944;11.776;2023-02-03T00:35:29;3.17;;;1.90;;
21825;SDS011;11075;47.944;11.776;2023-02-03T00:37:56;3.13;;;1.90;;
21825;SDS011;11075;47.944;11.776;2023-02-03T00:40:24;5.57;;;1.97;;
21825;SDS011;11075;47.944;11.776;2023-02-03T00:42:52;3.80;;;2.13;;
21825;SDS011;11075;47.944;11.776;2023-02-03T00:45:20;3.87;;;1.93;;
21825;SDS011;11075;47.944;11.776;2023-02-03T00:47:48;8.60;;;2.20;;
21825;SDS011;11075;47.944;11.776;2023-02-03T00:50:15;6.63;;;2.03;;
21825;SDS011;11075;47.944;11.776;2023-02-03T00:52:42;4.20;;;2.17;;
21825;SDS011;11075;47.944;11.776;2023-02-03T00:55:09;5.07;;;1.77;;
21825;SDS011;11075;47.944;11.776;2023-02-03T00:57:35;5.00;;;2.53;;
21825;SDS011;11075;47.944;11.776;2023-02-03T01:00:03;5.20;;;2.10;;
21825;SDS011;11075;47.944;11.776;2023-02-03T01:02:30;4.57;;;1.80;;
21825;SDS011;11075;47.944;11.776;2023-02-03T01:04:57;4.10;;;1.70;;
21825;SDS011;11075;47.944;11.776;2023-02-03T01:07:24;4.23;;;1.70;;
21825;SDS011;11075;47.944;11.776;2023-02-03T01:09:52;3.10;;;1.90;;
21825;SDS011;11075;47.944;11.776;2023-02-03T01:12:18;4.43;;;1.40;;
21825;SDS011;11075;47.944;11.776;2023-02-03T01:14:45;5.83;;;1.93;;
21825;SDS011;11075;47.944;11.776;2023-02-03T01:17:12;4.73;;;1.80;;
21825;SDS011;11075;47.944;11.776;2023-02-03T01:19:38;4.13;;;1.93;;
21825;SDS011;11075;47.944;11.776;2023-02-03T01:22:05;5.17;;;1.80;;
21825;SDS011;11075;47.944;11.776;2023-02-03T01:24:32;6.23;;;1.87;;
21825;SDS011;11075;47.944;11.776;2023-02-03T01:26:59;8.80;;;1.77;;
21825;SDS011;11075;47.944;11.776;2023-02-03T01:29:26;4.43;;;1.63;;
21825;SDS011;11075;47.944;11.776;2023-02-03T01:31:53;4.97;;;2.03;;
21825;SDS011;11075;47.944;11.776;2023-02-03T01:34:21;4.37;;;1.70;;
21825;SDS011;11075;47.944;11.776;2023-02-03T01:36:48;5.07;;;1.70;;
21825;SDS011;11075;47.944;11.776;2023-02-03T01:39:15;2.87;;;1.63;;
21825;SDS011;11075;47.944;11.776;2023-02-03T01:41:44;6.50;;;1.70;;
21825;SDS011;11075;47.944;11.776;2023-02-03T01:44:34;4.50;;;1.70;;
21825;SDS011;11075;47.944;11.776;2023-02-03T01:47:28;1.40;;;1.30;;
21825;SDS011;11075;47.944;11.776;2023-02-03T01:52:20;4.57;;;1.90;;
21825;SDS011;11075;47.944;11.776;2023-02-03T01:54:47;2.50;;;1.40;;
21825;SDS011;11075;47.944;11.776;2023-02-03T01:57:21;2.03;;;1.23;;
21825;SDS011;11075;47.944;11.776;2023-02-03T01:59:51;3.73;;;1.80;;
21825;SDS011;11075;47.944;11.776;2023-02-03T02:02:21;6.97;;;1.70;;
21825;SDS011;11075;47.944;11.776;2023-02-03T02:04:54;4.40;;;1.43;;
21825;SDS011;11075;47.944;11.776;2023-02-03T02:07:27;6.20;;;1.63;;
21825;SDS011;11075;47.944;11.776;2023-02-03T02:09:55;2.37;;;1.27;;
21825;SDS011;11075;47.944;11.776;2023-02-03T02:12:22;2.33;;;1.27;;
21825;SDS011;11075;47.944;11.776;2023-02-03T02:14:49;4.40;;;1.53;;
21825;SDS011;11075;47.944;11.776;2023-02-03T02:18:00;1.93;;;1.40;;
21825;SDS011;11075;47.944;11.776;2023-02-03T02:20:36;1.97;;;1.30;;
21825;SDS011;11075;47.944;11.776;2023-02-03T02:23:28;3.17;;;1.00;;
21825;SDS011;11075;47.944;11.776;2023-02-03T02:34:21;4.30;;;1.33;;
21825;SDS011;11075;47.944;11.776;2023-02-03T02:39:41;3.37;;;1.63;;
21825;SDS011;11075;47.944;11.776;2023-02-03T02:44:50;3.03;;;1.13;;
21825;SDS011;11075;47.944;11.776;2023-02-03T02:47:22;1.90;;;1.00;;
21825;SDS011;11075;47.944;11.776;2023-02-03T02:49:58;1.70;;;1.00;;
21825;SDS011;11075;47.944;11.776;2023-02-03T02:52:31;4.43;;;0.97;;
21825;SDS011;11075;47.944;11.776;2023-02-03T02:55:04;3.20;;;0.97;;
21825;SDS011;11075;47.944;11.776;2023-02-03T02:57:37;4.33;;;1.10;;
21825;SDS011;11075;47.944;11.776;2023-02-03T03:00:05;2.03;;;1.10;;
21825;SDS011;11075;47.944;11.776;2023-02-03T03:02:34;5.43;;;1.37;;
21825;SDS011;11075;47.944;11.776;2023-02-03T03:05:03;2.37;;;1.10;;
21825;SDS011;11075;47.944;11.776;2023-02-03T03:07:47;3.07;;;1.23;;
21825;SDS011;11075;47.944;11.776;2023-02-03T03:10:21;3.13;;;0.90;;
21825;SDS011;11075;47.944;11.776;2023-02-03T03:13:05;4.10;;;1.17;;
21825;SDS011;11075;47.944;11.776;2023-02-03T03:15:35;3.40;;;1.20;;
21825;SDS011;11075;47.944;11.776;2023-02-03T03:20:36;3.07;;;1.30;;
21825;SDS011;11075;47.944;11.776;2023-02-03T03:23:18;2.93;;;1.10;;
21825;SDS011;11075;47.944;11.776;2023-02-03T03:25:58;1.30;;;1.00;;
21825;SDS011;11075;47.944;11.776;2023-02-03T03:28:40;4.13;;;2.03;;
21825;SDS011;11075;47.944;11.776;2023-02-03T03:31:28;2.20;;;1.00;;
21825;SDS011;11075;47.944;11.776;2023-02-03T03:33:55;1.37;;;1.03;;
21825;SDS011;11075;47.944;11.776;2023-02-03T03:36:27;2.30;;;1.10;;
21825;SDS011;11075;47.944;11.776;2023-02-03T03:39:00;1.60;;;0.90;;
21825;SDS011;11075;47.944;11.776;2023-02-03T03:41:36;2.90;;;0.80;;
21825;SDS011;11075;47.944;11.776;2023-02-03T03:44:10;2.13;;;0.80;;
21825;SDS011;11075;47.944;11.776;2023-02-03T03:49:38;1.10;;;0.70;;
21825;SDS011;11075;47.944;11.776;2023-02-03T03:52:09;1.33;;;0.60;;
21825;SDS011;11075;47.944;11.776;2023-02-03T03:54:40;4.03;;;0.90;;
21825;SDS011;11075;47.944;11.776;2023-02-03T04:00:09;0.67;;;0.60;;
21825;SDS011;11075;47.944;11.776;2023-02-03T04:02:40;2.23;;;0.87;;
21825;SDS011;11075;47.944;11.776;2023-02-03T04:05:12;1.33;;;0.70;;
21825;SDS011;11075;47.944;11.776;2023-02-03T04:07:43;1.50;;;0.53;;
21825;SDS011;11075;47.944;11.776;2023-02-03T04:12:55;2.40;;;1.20;;
21825;SDS011;11075;47.944;11.776;2023-02-03T04:15:22;1.47;;;0.43;;
21825;SDS011;11075;47.944;11.776;2023-02-03T04:17:50;4.07;;;0.70;;
21825;SDS011;11075;47.944;11.776;2023-02-03T04:20:17;1.80;;;0.87;;
21825;SDS011;11075;47.944;11.776;2023-02-03T04:22:45;1.63;;;0.87;;
21825;SDS011;11075;47.944;11.776;2023-02-03T04:25:12;2.53;;;0.70;;
21825;SDS011;11075;47.944;11.776;2023-02-03T04:27:39;3.43;;;1.03;;
21825;SDS011;11075;47.944;11.776;2023-02-03T04:30:06;2.60;;;0.70;;
21825;SDS011;11075;47.944;11.776;2023-02-03T04:32:34;2.30;;;1.00;;
21825;SDS011;11075;47.944;11.776;2023-02-03T04:35:02;0.93;;;0.77;;
21825;SDS011;11075;47.944;11.776;2023-02-03T04:37:30;3.50;;;0.93;;
21825;SDS011;11075;47.944;11.776;2023-02-03T04:39:57;1.13;;;0.70;;
21825;SDS011;11075;47.944;11.776;2023-02-03T04:42:24;1.17;;;0.80;;
21825;SDS011;11075;47.944;11.776;2023-02-03T04:44:52;1.63;;;1.07;;
21825;SDS011;11075;47.944;11.776;2023-02-03T04:47:19;4.77;;;2.17;;
21825;SDS011;11075;47.944;11.776;2023-02-03T04:49:46;4.37;;;1.13;;
21825;SDS011;11075;47.944;11.776;2023-02-03T04:52:14;2.63;;;0.70;;
21825;SDS011;11075;47.944;11.776;2023-02-03T04:54:41;2.27;;;0.77;;
21825;SDS011;11075;47.944;11.776;2023-02-03T04:57:08;2.03;;;0.93;;
21825;SDS011;11075;47.944;11.776;2023-02-03T04:59:35;4.13;;;1.03;;
21825;SDS011;11075;47.944;11.776;2023-02-03T05:02:02;1.87;;;0.70;;
21825;SDS011;11075;47.944;11.776;2023-02-03T05:04:30;0.90;;;0.67;;
21825;SDS011;11075;47.944;11.776;2023-02-03T05:06:57;1.83;;;1.10;;
21825;SDS011;11075;47.944;11.776;2023-02-03T05:09:24;1.87;;;0.90;;
21825;SDS011;11075;47.944;11.776;2023-02-03T05:11:51;4.40;;;1.60;;
21825;SDS011;11075;47.944;11.776;2023-02-03T05:14:19;6.17;;;1.60;;
21825;SDS011;11075;47.944;11.776;2023-02-03T05:16:46;2.17;;;1.80;;
21825;SDS011;11075;47.944;11.776;2023-02-03T05:19:13;2.53;;;1.00;;
21825;SDS011;11075;47.944;11.776;2023-02-03T05:21:40;0.90;;;0.80;;
21825;SDS011;11075;47.944;11.776;2023-02-03T05:24:07;3.63;;;1.10;;
21825;SDS011;11075;47.944;11.776;2023-02-03T05:26:34;2.70;;;0.80;;
21825;SDS011;11075;47.944;11.776;2023-02-03T05:29:02;9.33;;;1.00;;
21825;SDS011;11075;47.944;11.776;2023-02-03T05:31:29;1.17;;;0.70;;
21825;SDS011;11075;47.944;11.776;2023-02-03T05:33:56;3.63;;;0.80;;
21825;SDS011;11075;47.944;11.776;2023-02-03T05:36:23;1.63;;;0.60;;
21825;SDS011;11075;47.944;11.776;2023-02-03T05:38:49;1.67;;;0.87;;
21825;SDS011;11075;47.944;11.776;2023-02-03T05:41:16;1.00;;;0.83;;
21825;SDS011;11075;47.944;11.776;2023-02-03T05:44:15;5.60;;;1.00;;
21825;SDS011;11075;47.944;11.776;2023-02-03T05:46:42;3.70;;;0.93;;
21825;SDS011;11075;47.944;11.776;2023-02-03T05:49:09;2.40;;;0.80;;
21825;SDS011;11075;47.944;11.776;2023-02-03T05:51:37;2.33;;;0.90;;
21825;SDS011;11075;47.944;11.776;2023-02-03T05:54:05;4.07;;;1.03;;
21825;SDS011;11075;47.944;11.776;2023-02-03T05:56:32;2.00;;;0.97;;
21825;SDS011;11075;47.944;11.776;2023-02-03T05:58:59;3.80;;;1.00;;
21825;SDS011;11075;47.944;11.776;2023-02-03T06:01:26;4.00;;;1.00;;
21825;SDS011;11075;47.944;11.776;2023-02-03T06:03:53;3.13;;;0.87;;
21825;SDS011;11075;47.944;11.776;2023-02-03T06:06:20;2.13;;;0.90;;
21825;SDS011;11075;47.944;11.776;2023-02-03T06:08:47;2.50;;;1.30;;
21825;SDS011;11075;47.944;11.776;2023-02-03T06:11:16;0.73;;;0.60;;
21825;SDS011;11075;47.944;11.776;2023-02-03T06:13:43;1.77;;;1.13;;
21825;SDS011;11075;47.944;11.776;2023-02-03T06:16:10;3.60;;;0.80;;
21825;SDS011;11075;47.944;11.776;2023-02-03T06:18:37;2.23;;;1.03;;
21825;SDS011;11075;47.944;11.776;2023-02-03T06:21:04;12.97;;;1.33;;
21825;SDS011;11075;47.944;11.776;2023-02-03T06:23:31;0.97;;;0.67;;
21825;SDS011;11075;47.944;11.776;2023-02-03T06:25:58;4.27;;;1.00;;
21825;SDS011;11075;47.944;11.776;2023-02-03T06:28:28;2.20;;;0.90;;
21825;SDS011;11075;47.944;11.776;2023-02-03T06:30:55;3.00;;;0.90;;
21825;SDS011;11075;47.944;11.776;2023-02-03T06:33:22;3.23;;;1.30;;
21825;SDS011;11075;47.944;11.776;2023-02-03T06:35:49;1.73;;;0.90;;
21825;SDS011;11075;47.944;11.776;2023-02-03T06:38:16;2.93;;;1.40;;
21825;SDS011;11075;47.944;11.776;2023-02-03T06:40:44;2.70;;;0.80;;
21825;SDS011;11075;47.944;11.776;2023-02-03T06:43:12;1.10;;;1.00;;
21825;SDS011;11075;47.944;11.776;2023-02-03T06:45:39;1.73;;;0.80;;
21825;SDS011;11075;47.944;11.776;2023-02-03T06:48:06;1.93;;;0.90;;
21825;SDS011;11075;47.944;11.776;2023-02-03T06:50:34;2.13;;;0.73;;
21825;SDS011;11075;47.944;11.776;2023-02-03T06:53:01;4.00;;;1.10;;
21825;SDS011;11075;47.944;11.776;2023-02-03T06:55:27;4.10;;;0.90;;
21825;SDS011;11075;47.944;11.776;2023-02-03T06:57:55;2.30;;;1.03;;
21825;SDS011;11075;47.944;11.776;2023-02-03T07:00:21;1.57;;;0.90;;
21825;SDS011;11075;47.944;11.776;2023-02-03T07:02:53;1.83;;;0.60;;
21825;SDS011;11075;47.944;11.776;2023-02-03T07:05:21;3.40;;;0.97;;
21825;SDS011;11075;47.944;11.776;2023-02-03T07:07:49;2.67;;;1.27;;
21825;SDS011;11075;47.944;11.776;2023-02-03T07:10:16;1.33;;;0.50;;
21825;SDS011;11075;47.944;11.776;2023-02-03T07:12:44;2.50;;;1.17;;
21825;SDS011;11075;47.944;11.776;2023-02-03T07:15:11;3.73;;;0.93;;
21825;SDS011;11075;47.944;11.776;2023-02-03T07:17:39;1.70;;;1.10;;
21825;SDS011;11075;47.944;11.776;2023-02-03T07:20:06;3.13;;;0.90;;
21825;SDS011;11075;47.944;11.776;2023-02-03T07:22:33;3.67;;;0.80;;
21825;SDS011;11075;47.944;11.776;2023-02-03T07:25:01;4.27;;;1.20;;
21825;SDS011;11075;47.944;11.776;2023-02-03T07:27:29;2.07;;;0.97;;
21825;SDS011;11075;47.944;11.776;2023-02-03T07:29:55;0.97;;;0.77;;
21825;SDS011;11075;47.944;11.776;2023-02-03T07:32:22;2.63;;;1.10;;
21825;SDS011;11075;47.944;11.776;2023-02-03T07:34:49;1.87;;;0.80;;
21825;SDS011;11075;47.944;11.776;2023-02-03T07:37:16;2.87;;;0.80;;
21825;SDS011;11075;47.944;11.776;2023-02-03T07:39:42;5.90;;;1.27;;
21825;SDS011;11075;47.944;11.776;2023-02-03T07:42:11;2.03;;;0.70;;
21825;SDS011;11075;47.944;11.776;2023-02-03T07:44:42;1.33;;;0.60;;
21825;SDS011;11075;47.944;11.776;2023-02-03T07:47:09;1.83;;;0.77;;
21825;SDS011;11075;47.944;11.776;2023-02-03T07:49:37;1.73;;;0.53;;
21825;SDS011;11075;47.944;11.776;2023-02-03T07:52:04;5.53;;;0.67;;
21825;SDS011;11075;47.944;11.776;2023-02-03T07:54:31;3.77;;;1.00;;
21825;SDS011;11075;47.944;11.776;2023-02-03T07:56:58;1.63;;;0.80;;
21825;SDS011;11075;47.944;11.776;2023-02-03T07:59:26;4.10;;;1.33;;
21825;SDS011;11075;47.944;11.776;2023-02-03T08:01:53;2.30;;;0.87;;
21825;SDS011;11075;47.944;11.776;2023-02-03T08:04:21;3.23;;;1.13;;
21825;SDS011;11075;47.944;11.776;2023-02-03T08:06:49;3.33;;;1.00;;
21825;SDS011;11075;47.944;11.776;2023-02-03T08:09:16;3.47;;;1.10;;
21825;SDS011;11075;47.944;11.776;2023-02-03T08:11:43;3.00;;;0.80;;
21825;SDS011;11075;47.944;11.776;2023-02-03T08:14:10;1.60;;;0.90;;
21825;SDS011;11075;47.944;11.776;2023-02-03T08:16:37;1.33;;;0.90;;
21825;SDS011;11075;47.944;11.776;2023-02-03T08:19:04;2.27;;;0.80;;
21825;SDS011;11075;47.944;11.776;2023-02-03T08:21:31;1.00;;;0.63;;
21825;SDS011;11075;47.944;11.776;2023-02-03T08:23:58;0.73;;;0.60;;
21825;SDS011;11075;47.944;11.776;2023-02-03T08:26:25;1.00;;;0.67;;
21825;SDS011;11075;47.944;11.776;2023-02-03T08:28:51;1.53;;;0.80;;
21825;SDS011;11075;47.944;11.776;2023-02-03T08:31:18;3.80;;;0.80;;
21825;SDS011;11075;47.944;11.776;2023-02-03T08:33:45;1.90;;;0.63;;
21825;SDS011;11075;47.944;11.776;2023-02-03T08:36:12;2.47;;;0.90;;
21825;SDS011;11075;47.944;11.776;2023-02-03T08:38:39;1.57;;;0.70;;
21825;SDS011;11075;47.944;11.776;2023-02-03T08:41:11;2.37;;;0.97;;
21825;SDS011;11075;47.944;11.776;2023-02-03T08:43:40;1.90;;;0.63;;
21825;SDS011;11075;47.944;11.776;2023-02-03T08:46:08;2.90;;;0.70;;
21825;SDS011;11075;47.944;11.776;2023-02-03T08:48:36;1.10;;;0.60;;
21825;SDS011;11075;47.944;11.776;2023-02-03T08:51:11;3.70;;;0.70;;
21825;SDS011;11075;47.944;11.776;2023-02-03T08:53:39;1.00;;;0.47;;
21825;SDS011;11075;47.944;11.776;2023-02-03T08:56:06;1.37;;;0.63;;
21825;SDS011;11075;47.944;11.776;2023-02-03T08:58:35;1.97;;;0.60;;
21825;SDS011;11075;47.944;11.776;2023-02-03T09:01:09;2.10;;;0.60;;
21825;SDS011;11075;47.944;11.776;2023-02-03T09:03:39;1.43;;;0.50;;
21825;SDS011;11075;47.944;11.776;2023-02-03T09:06:06;0.60;;;0.40;;
21825;SDS011;11075;47.944;11.776;2023-02-03T09:08:34;1.77;;;0.63;;
21825;SDS011;11075;47.944;11.776;2023-02-03T09:11:01;2.87;;;0.73;;
21825;SDS011;11075;47.944;11.776;2023-02-03T09:13:28;2.10;;;0.53;;
21825;SDS011;11075;47.944;11.776;2023-02-03T09:15:58;1.97;;;0.90;;
21825;SDS011;11075;47.944;11.776;2023-02-03T09:18:26;2.23;;;0.80;;
21825;SDS011;11075;47.944;11.776;2023-02-03T09:20:58;3.70;;;0.90;;
21825;SDS011;11075;47.944;11.776;2023-02-03T09:23:27;3.13;;;0.70;;
21825;SDS011;11075;47.944;11.776;2023-02-03T09:25:54;2.63;;;0.60;;
21825;SDS011;11075;47.944;11.776;2023-02-03T09:28:21;0.67;;;0.60;;
21825;SDS011;11075;47.944;11.776;2023-02-03T09:30:48;3.03;;;0.60;;
21825;SDS011;11075;47.944;11.776;2023-02-03T09:33:15;0.80;;;0.57;;
21825;SDS011;11075;47.944;11.776;2023-02-03T09:35:49;1.47;;;0.60;;
21825;SDS011;11075;47.944;11.776;2023-02-03T09:38:18;0.93;;;0.60;;
21825;SDS011;11075;47.944;11.776;2023-02-03T09:40:46;1.10;;;0.47;;
21825;SDS011;11075;47.944;11.776;2023-02-03T09:46:25;1.70;;;0.53;;
21825;SDS011;11075;47.944;11.776;2023-02-03T09:48:57;0.70;;;0.40;;
21825;SDS011;11075;47.944;11.776;2023-02-03T09:51:33;1.07;;;0.40;;
21825;SDS011;11075;47.944;11.776;2023-02-03T09:56:33;2.50;;;0.70;;
21825;SDS011;11075;47.944;11.776;2023-02-03T09:59:02;1.23;;;0.50;;
21825;SDS011;11075;47.944;11.776;2023-02-03T10:01:35;2.73;;;0.70;;
21825;SDS011;11075;47.944;11.776;2023-02-03T10:04:23;1.50;;;0.73;;
21825;SDS011;11075;47.944;11.776;2023-02-03T10:07:10;0.97;;;0.40;;
21825;SDS011;11075;47.944;11.776;2023-02-03T10:09:43;0.20;;;0.20;;
21825;SDS011;11075;47.944;11.776;2023-02-03T10:18:12;0.73;;;0.40;;
21825;SDS011;11075;47.944;11.776;2023-02-03T10:20:46;1.20;;;0.37;;
21825;SDS011;11075;47.944;11.776;2023-02-03T10:23:39;0.97;;;0.70;;
21825;SDS011;11075;47.944;11.776;2023-02-03T10:26:11;0.67;;;0.33;;
21825;SDS011;11075;47.944;11.776;2023-02-03T10:28:56;0.27;;;0.27;;
21825;SDS011;11075;47.944;11.776;2023-02-03T10:31:25;0.40;;;0.40;;
21825;SDS011;11075;47.944;11.776;2023-02-03T10:33:58;2.07;;;0.40;;
21825;SDS011;11075;47.944;11.776;2023-02-03T10:36:52;1.23;;;0.40;;
21825;SDS011;11075;47.944;11.776;2023-02-03T10:39:30;0.53;;;0.20;;
21825;SDS011;11075;47.944;11.776;2023-02-03T10:42:29;0.30;;;0.30;;
21825;SDS011;11075;47.944;11.776;2023-02-03T10:45:18;2.00;;;0.30;;
21825;SDS011;11075;47.944;11.776;2023-02-03T10:47:47;0.67;;;0.40;;
21825;SDS011;11075;47.944;11.776;2023-02-03T10:52:46;0.37;;;0.20;;
21825;SDS011;11075;47.944;11.776;2023-02-03T10:57:46;0.50;;;0.33;;
21825;SDS011;11075;47.944;11.776;2023-02-03T11:02:44;0.30;;;0.30;;
21825;SDS011;11075;47.944;11.776;2023-02-03T11:07:43;0.67;;;0.27;;
21825;SDS011;11075;47.944;11.776;2023-02-03T11:10:26;0.77;;;0.20;;
21825;SDS011;11075;47.944;11.776;2023-02-03T11:15:43;0.60;;;0.33;;
21825;SDS011;11075;47.944;11.776;2023-02-03T11:18:30;1.97;;;0.20;;
21825;SDS011;11075;47.944;11.776;2023-02-03T11:20:59;2.27;;;0.40;;
21825;SDS011;11075;47.944;11.776;2023-02-03T11:23:32;0.47;;;0.30;;
21825;SDS011;11075;47.944;11.776;2023-02-03T11:26:08;0.20;;;0.13;;
21825;SDS011;11075;47.944;11.776;2023-02-03T11:28:36;0.30;;;0.30;;
21825;SDS011;11075;47.944;11.776;2023-02-03T11:31:19;0.67;;;0.33;;
21825;SDS011;11075;47.944;11.776;2023-02-03T11:33:53;0.27;;;0.27;;
21825;SDS011;11075;47.944;11.776;2023-02-03T11:36:26;1.50;;;0.33;;
21825;SDS011;11075;47.944;11.776;2023-02-03T11:41:50;3.10;;;0.50;;
21825;SDS011;11075;47.944;11.776;2023-02-03T11:44:24;1.33;;;0.40;;
21825;SDS011;11075;47.944;11.776;2023-02-03T11:46:56;0.33;;;0.33;;
21825;SDS011;11075;47.944;11.776;2023-02-03T11:49:36;0.50;;;0.40;;
21825;SDS011;11075;47.944;11.776;2023-02-03T11:58:02;0.47;;;0.20;;
21825;SDS011;11075;47.944;11.776;2023-02-03T12:06:12;0.63;;;0.50;;
21825;SDS011;11075;47.944;11.776;2023-02-03T12:14:25;1.13;;;0.40;;
21825;SDS011;11075;47.944;11.776;2023-02-03T12:17:03;1.73;;;0.40;;
21825;SDS011;11075;47.944;11.776;2023-02-03T12:30:31;0.40;;;0.30;;
21825;SDS011;11075;47.944;11.776;2023-02-03T12:33:11;0.53;;;0.40;;
21825;SDS011;11075;47.944;11.776;2023-02-03T12:35:47;0.80;;;0.40;;
21825;SDS011;11075;47.944;11.776;2023-02-03T12:38:26;1.63;;;0.77;;
21825;SDS011;11075;47.944;11.776;2023-02-03T12:41:02;0.63;;;0.50;;
21825;SDS011;11075;47.944;11.776;2023-02-03T12:43:43;1.07;;;0.30;;
21825;SDS011;11075;47.944;11.776;2023-02-03T12:46:22;1.33;;;0.33;;
21825;SDS011;11075;47.944;11.776;2023-02-03T12:48:55;0.20;;;0.20;;
21825;SDS011;11075;47.944;11.776;2023-02-03T12:54:48;1.07;;;0.67;;
21825;SDS011;11075;47.944;11.776;2023-02-03T12:57:31;0.37;;;0.30;;
21825;SDS011;11075;47.944;11.776;2023-02-03T13:02:31;0.40;;;0.30;;
21825;SDS011;11075;47.944;11.776;2023-02-03T13:05:21;2.10;;;0.50;;
21825;SDS011;11075;47.944;11.776;2023-02-03T13:07:58;1.90;;;0.53;;
21825;SDS011;11075;47.944;11.776;2023-02-03T13:10:42;0.97;;;0.43;;
21825;SDS011;11075;47.944;11.776;2023-02-03T13:13:14;0.60;;;0.40;;
21825;SDS011;11075;47.944;11.776;2023-02-03T13:15:47;1.33;;;0.30;;
21825;SDS011;11075;47.944;11.776;2023-02-03T13:18:20;1.30;;;0.40;;
21825;SDS011;11075;47.944;11.776;2023-02-03T13:20:55;0.43;;;0.43;;
21825;SDS011;11075;47.944;11.776;2023-02-03T13:23:22;1.80;;;0.40;;
21825;SDS011;11075;47.944;11.776;2023-02-03T13:44:19;1.90;;;0.90;;
21825;SDS011;11075;47.944;11.776;2023-02-03T13:46:50;2.40;;;1.23;;
21825;SDS011;11075;47.944;11.776;2023-02-03T13:49:22;2.00;;;0.70;;
21825;SDS011;11075;47.944;11.776;2023-02-03T13:51:52;0.87;;;0.50;;
21825;SDS011;11075;47.944;11.776;2023-02-03T13:54:24;1.13;;;0.50;;
21825;SDS011;11075;47.944;11.776;2023-02-03T13:56:56;2.60;;;0.87;;
21825;SDS011;11075;47.944;11.776;2023-02-03T13:59:28;0.60;;;0.47;;
21825;SDS011;11075;47.944;11.776;2023-02-03T14:04:49;1.30;;;0.43;;
21825;SDS011;11075;47.944;11.776;2023-02-03T14:25:23;1.30;;;0.53;;
21825;SDS011;11075;47.944;11.776;2023-02-03T14:27:59;1.37;;;0.77;;
21825;SDS011;11075;47.944;11.776;2023-02-03T14:30:30;0.60;;;0.50;;
21825;SDS011;11075;47.944;11.776;2023-02-03T14:32:57;1.70;;;0.57;;
21825;SDS011;11075;47.944;11.776;2023-02-03T14:35:36;1.80;;;0.60;;
21825;SDS011;11075;47.944;11.776;2023-02-03T14:38:06;1.23;;;0.50;;
21825;SDS011;11075;47.944;11.776;2023-02-03T15:02:32;1.63;;;0.70;;
21825;SDS011;11075;47.944;11.776;2023-02-03T15:07:43;0.87;;;0.57;;
21825;SDS011;11075;47.944;11.776;2023-02-03T15:12:46;1.13;;;0.63;;
21825;SDS011;11075;47.944;11.776;2023-02-03T15:17:47;2.37;;;0.73;;
21825;SDS011;11075;47.944;11.776;2023-02-03T15:22:58;2.37;;;0.90;;
21825;SDS011;11075;47.944;11.776;2023-02-03T15:25:25;3.93;;;0.70;;
21825;SDS011;11075;47.944;11.776;2023-02-03T15:28:12;0.83;;;0.47;;
21825;SDS011;11075;47.944;11.776;2023-02-03T15:30:45;1.20;;;0.70;;
21825;SDS011;11075;47.944;11.776;2023-02-03T15:33:18;0.90;;;0.53;;
21825;SDS011;11075;47.944;11.776;2023-02-03T15:35:50;0.63;;;0.60;;
21825;SDS011;11075;47.944;11.776;2023-02-03T15:38:30;0.40;;;0.40;;
21825;SDS011;11075;47.944;11.776;2023-02-03T15:41:05;1.03;;;0.90;;
21825;SDS011;11075;47.944;11.776;2023-02-03T15:43:39;1.67;;;0.60;;
21825;SDS011;11075;47.944;11.776;2023-02-03T15:48:48;4.27;;;1.27;;
21825;SDS011;11075;47.944;11.776;2023-02-03T15:51:21;1.87;;;0.83;;
21825;SDS011;11075;47.944;11.776;2023-02-03T15:54:02;1.17;;;0.70;;
21825;SDS011;11075;47.944;11.776;2023-02-03T15:56:57;0.83;;;0.50;;
21825;SDS011;11075;47.944;11.776;2023-02-03T16:04:54;3.17;;;1.10;;
21825;SDS011;11075;47.944;11.776;2023-02-03T16:07:23;6.17;;;0.80;;
21825;SDS011;11075;47.944;11.776;2023-02-03T16:09:54;0.40;;;0.30;;
21825;SDS011;11075;47.944;11.776;2023-02-03T16:12:24;1.47;;;0.93;;
21825;SDS011;11075;47.944;11.776;2023-02-03T16:15:01;1.37;;;0.40;;
21825;SDS011;11075;47.944;11.776;2023-02-03T16:20:16;1.20;;;0.90;;
21825;SDS011;11075;47.944;11.776;2023-02-03T16:25:27;1.93;;;1.00;;
21825;SDS011;11075;47.944;11.776;2023-02-03T16:28:01;1.20;;;0.73;;
21825;SDS011;11075;47.944;11.776;2023-02-03T16:30:57;3.40;;;1.03;;
21825;SDS011;11075;47.944;11.776;2023-02-03T16:33:46;1.13;;;0.80;;
21825;SDS011;11075;47.944;11.776;2023-02-03T16:36:37;0.57;;;0.50;;
21825;SDS011;11075;47.944;11.776;2023-02-03T16:39:24;2.47;;;0.80;;
21825;SDS011;11075;47.944;11.776;2023-02-03T16:42:14;0.90;;;0.60;;
21825;SDS011;11075;47.944;11.776;2023-02-03T16:45:02;1.20;;;0.70;;
21825;SDS011;11075;47.944;11.776;2023-02-03T16:47:48;1.90;;;0.70;;
21825;SDS011;11075;47.944;11.776;2023-02-03T16:50:34;1.20;;;0.67;;
21825;SDS011;11075;47.944;11.776;2023-02-03T16:53:25;1.03;;;0.57;;
21825;SDS011;11075;47.944;11.776;2023-02-03T16:55:56;0.90;;;0.60;;
21825;SDS011;11075;47.944;11.776;2023-02-03T16:58:25;0.80;;;0.50;;
21825;SDS011;11075;47.944;11.776;2023-02-03T17:00:53;0.60;;;0.60;;
21825;SDS011;11075;47.944;11.776;2023-02-03T17:03:21;2.93;;;0.60;;
21825;SDS011;11075;47.944;11.776;2023-02-03T17:05:51;2.30;;;0.77;;
21825;SDS011;11075;47.944;11.776;2023-02-03T17:08:19;1.30;;;0.70;;
21825;SDS011;11075;47.944;11.776;2023-02-03T17:10:48;1.80;;;0.80;;
21825;SDS011;11075;47.944;11.776;2023-02-03T17:13:18;1.07;;;0.60;;
21825;SDS011;11075;47.944;11.776;2023-02-03T17:15:50;0.73;;;0.60;;
21825;SDS011;11075;47.944;11.776;2023-02-03T17:18:20;1.33;;;0.60;;
21825;SDS011;11075;47.944;11.776;2023-02-03T17:20:48;0.93;;;0.60;;
21825;SDS011;11075;47.944;11.776;2023-02-03T17:23:15;1.37;;;0.77;;
21825;SDS011;11075;47.944;11.776;2023-02-03T17:25:44;1.20;;;0.70;;
21825;SDS011;11075;47.944;11.776;2023-02-03T17:28:12;1.33;;;0.70;;
21825;SDS011;11075;47.944;11.776;2023-02-03T17:30:39;1.47;;;0.73;;
21825;SDS011;11075;47.944;11.776;2023-02-03T17:33:06;1.20;;;0.60;;
21825;SDS011;11075;47.944;11.776;2023-02-03T17:35:40;1.70;;;0.67;;
21825;SDS011;11075;47.944;11.776;2023-02-03T17:38:09;0.63;;;0.60;;
21825;SDS011;11075;47.944;11.776;2023-02-03T17:40:38;1.17;;;0.70;;
21825;SDS011;11075;47.944;11.776;2023-02-03T17:43:24;0.97;;;0.70;;
21825;SDS011;11075;47.944;11.776;2023-02-03T17:46:09;2.07;;;0.70;;
21825;SDS011;11075;47.944;11.776;2023-02-03T17:48:55;1.40;;;0.73;;
21825;SDS011;11075;47.944;11.776;2023-02-03T17:51:41;2.60;;;1.00;;